Time;durP1;ratioP1;P1;durP2;ratioP2;P2;SDS_P1;SDS_P2;PMS_P1;PMS_P2;Temp;Humidity;BMP_temperature;BMP_pressure;BME280_temperature;BME280_humidity;BME280_pressure;Samples;Min_cycle;Max_cycle;Signal;HPM_P1;HPM_P2
2022/01/06 00:01:07;;;;;;;5.75;2.40;;;3.90;91.00;;;;;;5013423;28;20033;-80
2022/01/06 00:03:34;;;;;;;4.53;2.28;;;3.90;91.00;;;;;;5039063;28;20045;-80
2022/01/06 00:06:03;;;;;;;6.78;2.78;;;3.90;91.00;;;;;;5011832;28;20173;-81
2022/01/06 00:08:29;;;;;;;2.88;1.63;;;3.90;91.00;;;;;;5004967;28;20722;-80
2022/01/06 00:10:55;;;;;;;4.90;2.28;;;3.90;91.00;;;;;;5040997;28;20041;-81
2022/01/06 00:13:28;;;;;;;3.72;1.80;;;3.90;91.00;;;;;;5022426;28;20420;-80
2022/01/06 00:16:03;;;;;;;5.28;2.30;;;3.90;91.00;;;;;;5010877;28;20045;-81
2022/01/06 00:23:17;;;;;;;4.50;2.10;;;3.90;91.00;;;;;;5029851;28;20088;-81
2022/01/06 00:24:01;;;;;;;3.90;2.03;;;3.90;91.10;;;;;;5020340;28;20115;-81
2022/01/06 00:26:27;;;;;;;3.95;2.20;;;3.90;91.10;;;;;;5027346;28;20108;-81
2022/01/06 00:28:52;;;;;;;8.70;2.10;;;3.90;91.10;;;;;;5022864;28;20454;-80
2022/01/06 00:31:18;;;;;;;4.68;1.95;;;3.90;91.10;;;;;;5021927;28;20507;-82
2022/01/06 00:33:43;;;;;;;3.67;2.25;;;3.90;91.20;;;;;;5035419;28;20123;-81
2022/01/06 00:36:09;;;;;;;2.85;1.77;;;3.90;91.20;;;;;;5026300;28;20033;-82
2022/01/06 00:38:34;;;;;;;3.22;2.13;;;3.90;91.20;;;;;;5021820;28;20659;-81
2022/01/06 00:41:00;;;;;;;8.40;2.25;;;3.90;91.20;;;;;;5031150;28;20062;-80
2022/01/06 00:43:26;;;;;;;3.72;2.15;;;3.90;91.20;;;;;;5032503;28;20104;-81
2022/01/06 00:45:51;;;;;;;7.90;2.03;;;3.90;91.20;;;;;;5018942;28;20164;-80
2022/01/06 00:48:17;;;;;;;4.13;2.20;;;4.00;91.30;;;;;;5016067;28;20132;-81
2022/01/06 00:50:43;;;;;;;3.92;2.03;;;4.00;91.70;;;;;;5045149;28;20078;-81
2022/01/06 00:53:08;;;;;;;7.18;2.10;;;4.00;91.40;;;;;;5023088;28;20041;-82
2022/01/06 00:55:34;;;;;;;2.25;1.55;;;4.00;91.40;;;;;;5025827;28;20039;-80
2022/01/06 00:58:00;;;;;;;3.20;1.73;;;4.00;91.40;;;;;;5020200;28;20044;-80
2022/01/06 01:00:29;;;;;;;4.40;2.33;;;4.00;91.40;;;;;;5020553;28;21741;-82
2022/01/06 01:02:55;;;;;;;6.35;2.53;;;4.00;91.40;;;;;;5016311;28;20049;-80
2022/01/06 01:05:20;;;;;;;2.83;1.75;;;4.00;91.40;;;;;;4999992;28;20038;-80
2022/01/06 01:07:46;;;;;;;3.00;1.83;;;4.00;91.40;;;;;;5016356;28;20077;-80
2022/01/06 01:10:12;;;;;;;2.28;1.67;;;4.00;91.40;;;;;;5016265;28;20503;-80
2022/01/06 01:12:38;;;;;;;5.22;2.10;;;4.00;91.40;;;;;;5047140;28;20029;-80
2022/01/06 01:15:08;;;;;;;3.80;1.70;;;3.90;91.40;;;;;;5028419;28;20025;-81
2022/01/06 01:17:33;;;;;;;4.70;1.83;;;3.90;91.40;;;;;;5032238;28;20746;-82
2022/01/06 01:19:59;;;;;;;5.35;1.92;;;3.90;91.40;;;;;;5018504;28;20050;-80
2022/01/06 01:22:25;;;;;;;6.38;2.10;;;3.90;91.40;;;;;;5000957;28;20565;-80
2022/01/06 01:24:50;;;;;;;4.35;2.30;;;3.90;91.40;;;;;;5019885;28;20500;-82
2022/01/06 01:27:20;;;;;;;5.13;1.77;;;4.00;91.50;;;;;;5019557;28;20026;-82
2022/01/06 01:30:03;;;;;;;3.45;1.55;;;4.00;91.50;;;;;;5013724;28;20033;-80
2022/01/06 01:32:35;;;;;;;3.00;1.95;;;4.00;91.50;;;;;;5042982;28;20513;-81
2022/01/06 01:35:02;;;;;;;4.35;2.05;;;4.00;91.50;;;;;;5035501;28;20032;-80
2022/01/06 01:37:28;;;;;;;4.00;1.90;;;4.00;91.50;;;;;;5024136;28;20535;-80
2022/01/06 01:39:54;;;;;;;5.63;2.92;;;4.00;91.50;;;;;;5030379;28;20073;-81
2022/01/06 01:42:19;;;;;;;7.03;2.00;;;4.00;91.50;;;;;;5017578;28;20029;-81
2022/01/06 01:44:45;;;;;;;4.18;2.38;;;4.00;91.60;;;;;;5014926;28;20135;-81
2022/01/06 01:47:14;;;;;;;4.75;2.03;;;4.00;91.60;;;;;;5031738;28;20089;-80
2022/01/06 01:50:12;;;;;;;4.75;2.00;;;4.00;91.60;;;;;;5015855;28;20026;-80
2022/01/06 01:52:29;;;;;;;4.55;2.15;;;4.00;91.60;;;;;;5015172;28;20086;-80
2022/01/06 01:54:55;;;;;;;6.88;2.00;;;4.00;91.60;;;;;;5032161;28;20036;-82
2022/01/06 01:57:20;;;;;;;5.13;2.40;;;4.00;91.60;;;;;;5016724;28;20639;-82
2022/01/06 01:59:46;;;;;;;4.55;2.28;;;4.00;91.60;;;;;;5013801;28;20518;-81
2022/01/06 02:02:12;;;;;;;5.75;2.60;;;4.00;91.60;;;;;;5031834;28;20430;-82
2022/01/06 02:04:37;;;;;;;4.00;2.42;;;4.00;91.60;;;;;;5021796;28;20140;-82
2022/01/06 02:07:03;;;;;;;4.88;2.00;;;4.00;91.60;;;;;;5014935;28;20128;-81
2022/01/06 02:09:29;;;;;;;8.27;2.38;;;4.00;91.60;;;;;;5022049;28;20048;-82
2022/01/06 02:11:54;;;;;;;6.40;2.53;;;4.00;91.60;;;;;;5023256;28;20037;-80
2022/01/06 02:14:20;;;;;;;5.07;2.15;;;4.00;91.60;;;;;;5018478;28;20038;-82
2022/01/06 02:16:45;;;;;;;4.60;2.42;;;4.00;91.60;;;;;;5024324;28;20037;-81
2022/01/06 02:19:11;;;;;;;5.03;2.40;;;4.00;91.60;;;;;;5028376;28;20045;-81
2022/01/06 02:21:40;;;;;;;7.50;2.25;;;4.00;91.60;;;;;;5018931;28;20033;-80
2022/01/06 02:24:06;;;;;;;3.58;2.35;;;4.00;91.60;;;;;;5012524;28;20067;-80
2022/01/06 02:26:32;;;;;;;6.18;2.17;;;4.00;91.60;;;;;;5016212;28;20334;-80
2022/01/06 02:28:57;;;;;;;3.78;1.92;;;4.00;91.70;;;;;;5019401;28;20041;-80
2022/01/06 02:31:24;;;;;;;3.80;2.22;;;4.00;91.60;;;;;;5019676;28;20045;-80
2022/01/06 02:33:49;;;;;;;8.43;1.98;;;4.00;91.60;;;;;;5029375;28;20036;-80
2022/01/06 02:36:15;;;;;;;4.13;2.25;;;4.00;91.60;;;;;;5029243;28;20044;-81
2022/01/06 02:38:40;;;;;;;5.30;2.47;;;4.00;91.60;;;;;;5036798;28;20700;-80
2022/01/06 02:41:06;;;;;;;4.35;2.00;;;4.00;91.60;;;;;;5017785;28;20535;-80
2022/01/06 02:43:32;;;;;;;8.00;3.00;;;4.00;91.60;;;;;;5026549;28;20551;-79
2022/01/06 02:45:57;;;;;;;7.70;2.33;;;4.00;91.60;;;;;;5019393;28;20033;-80
2022/01/06 02:48:23;;;;;;;3.17;2.20;;;4.00;91.70;;;;;;5013897;28;20052;-80
2022/01/06 02:50:49;;;;;;;4.32;2.28;;;4.00;92.00;;;;;;5025011;28;20041;-79
2022/01/06 02:53:15;;;;;;;5.57;2.40;;;4.00;91.70;;;;;;5017097;28;20178;-80
2022/01/06 02:55:47;;;;;;;5.32;2.58;;;4.00;91.70;;;;;;5002471;28;20564;-80
2022/01/06 02:58:12;;;;;;;6.30;2.38;;;4.00;91.60;;;;;;5032288;28;20033;-79
2022/01/06 03:00:38;;;;;;;7.78;2.75;;;4.00;91.60;;;;;;5017814;28;20048;-80
2022/01/06 03:03:03;;;;;;;7.95;1.75;;;4.00;91.60;;;;;;5020504;28;20087;-80
2022/01/06 03:05:29;;;;;;;5.63;2.17;;;4.10;91.60;;;;;;5044837;28;20601;-81
2022/01/06 03:07:54;;;;;;;8.88;2.17;;;4.00;91.60;;;;;;5034282;28;21429;-81
2022/01/06 03:10:20;;;;;;;4.28;1.67;;;4.10;91.60;;;;;;5033694;28;20197;-80
2022/01/06 03:12:46;;;;;;;5.63;2.17;;;4.10;91.60;;;;;;5048010;28;20075;-80
2022/01/06 03:15:20;;;;;;;4.57;2.25;;;4.10;91.60;;;;;;5036924;28;20052;-80
2022/01/06 03:17:56;;;;;;;3.55;1.90;;;4.10;91.60;;;;;;5012810;28;20238;-80
2022/01/06 03:20:23;;;;;;;5.07;1.80;;;4.00;91.50;;;;;;5017435;28;20029;-81
2022/01/06 03:22:49;;;;;;;10.43;2.00;;;4.10;91.60;;;;;;5036252;28;20052;-79
2022/01/06 03:25:15;;;;;;;8.75;1.77;;;4.00;91.50;;;;;;5030501;28;20617;-80
2022/01/06 03:27:41;;;;;;;4.75;1.70;;;4.00;91.60;;;;;;5033497;28;20036;-80
2022/01/06 03:30:08;;;;;;;3.90;1.75;;;4.00;91.60;;;;;;5021893;28;20108;-80
2022/01/06 03:32:33;;;;;;;2.25;1.42;;;4.00;91.60;;;;;;5018027;28;20029;-80
2022/01/06 03:34:59;;;;;;;2.88;1.95;;;4.00;91.60;;;;;;5036165;28;20049;-81
2022/01/06 03:37:24;;;;;;;5.70;1.65;;;4.00;91.60;;;;;;5039396;28;20047;-80
2022/01/06 03:39:50;;;;;;;5.72;1.92;;;4.00;91.60;;;;;;5040349;28;20078;-81
2022/01/06 03:42:15;;;;;;;5.10;1.80;;;3.90;91.50;;;;;;5023311;28;20036;-80
2022/01/06 03:44:41;;;;;;;6.07;1.98;;;3.90;91.60;;;;;;5019947;28;20025;-80
2022/01/06 03:47:07;;;;;;;3.80;1.83;;;3.90;91.60;;;;;;5006956;28;20044;-80
2022/01/06 03:49:32;;;;;;;4.18;1.90;;;3.90;91.60;;;;;;5040368;28;20510;-80
2022/01/06 03:51:58;;;;;;;5.28;1.92;;;3.90;91.60;;;;;;5036743;28;20093;-80
2022/01/06 03:54:23;;;;;;;3.35;1.95;;;3.90;91.50;;;;;;5038564;28;20032;-80
2022/01/06 03:56:49;;;;;;;8.63;2.08;;;3.90;91.60;;;;;;5029252;28;20644;-80
2022/01/06 03:59:17;;;;;;;4.68;1.55;;;3.90;91.60;;;;;;5022831;28;20036;-79
2022/01/06 04:01:43;;;;;;;4.13;1.80;;;3.90;91.60;;;;;;5007133;28;20102;-79
2022/01/06 04:04:09;;;;;;;4.45;1.85;;;3.90;91.60;;;;;;5013221;28;20045;-80
2022/01/06 04:06:35;;;;;;;5.38;1.60;;;3.90;91.60;;;;;;5037752;28;20041;-81
2022/01/06 04:09:00;;;;;;;6.53;1.90;;;3.90;91.60;;;;;;5041683;28;20067;-80
2022/01/06 04:11:26;;;;;;;7.78;1.92;;;3.90;91.60;;;;;;5042864;28;20039;-80
2022/01/06 04:13:51;;;;;;;4.70;1.77;;;3.90;91.50;;;;;;5044628;28;20379;-80
2022/01/06 04:16:17;;;;;;;3.75;1.60;;;3.90;91.50;;;;;;5031719;28;20044;-80
2022/01/06 04:18:43;;;;;;;3.97;1.40;;;3.90;91.50;;;;;;5022192;28;20029;-80
2022/01/06 04:21:09;;;;;;;5.38;1.67;;;3.90;91.50;;;;;;5042022;28;20091;-80
2022/01/06 04:23:34;;;;;;;8.00;2.20;;;3.90;91.50;;;;;;5034855;28;20090;-80
2022/01/06 04:26:00;;;;;;;3.85;1.55;;;3.90;91.50;;;;;;5039023;28;20518;-79
2022/01/06 04:28:25;;;;;;;5.90;1.88;;;3.90;91.50;;;;;;5042827;28;20075;-81
2022/01/06 04:30:51;;;;;;;8.80;2.20;;;3.90;91.50;;;;;;5021992;28;20124;-79
2022/01/06 04:33:17;;;;;;;7.70;2.40;;;3.80;91.50;;;;;;5017723;28;20132;-80
2022/01/06 04:35:42;;;;;;;6.93;2.00;;;3.90;91.50;;;;;;5023998;28;20523;-80
2022/01/06 04:38:08;;;;;;;7.15;2.80;;;3.90;91.50;;;;;;5042998;28;20040;-80
2022/01/06 04:40:33;;;;;;;7.13;2.42;;;3.90;91.50;;;;;;5037356;28;20037;-80
2022/01/06 04:42:59;;;;;;;6.38;1.70;;;3.90;91.50;;;;;;5044502;28;20115;-79
2022/01/06 04:45:24;;;;;;;4.45;2.03;;;3.90;91.50;;;;;;5047046;28;20387;-80
2022/01/06 04:47:50;;;;;;;3.08;1.85;;;3.90;91.50;;;;;;5014408;28;20028;-79
2022/01/06 04:50:15;;;;;;;7.78;1.92;;;3.90;91.50;;;;;;5037132;28;20028;-80
2022/01/06 04:52:41;;;;;;;6.43;1.40;;;3.90;91.40;;;;;;5031052;28;20040;-79
2022/01/06 04:55:07;;;;;;;6.50;2.03;;;3.90;91.40;;;;;;5039043;28;20033;-79
2022/01/06 04:57:33;;;;;;;5.53;1.70;;;3.90;91.40;;;;;;5037764;28;20052;-80
2022/01/06 04:59:58;;;;;;;6.70;2.00;;;3.90;91.40;;;;;;5041352;28;20215;-80
2022/01/06 05:02:24;;;;;;;5.07;1.60;;;3.90;91.40;;;;;;5030037;28;20108;-80
2022/01/06 05:04:49;;;;;;;7.97;1.90;;;3.90;91.40;;;;;;5038239;28;20066;-80
2022/01/06 05:07:15;;;;;;;4.07;2.15;;;3.90;91.40;;;;;;5039266;28;20064;-80
2022/01/06 05:09:40;;;;;;;2.88;1.65;;;3.90;91.40;;;;;;5039044;28;20049;-80
2022/01/06 05:12:06;;;;;;;6.53;1.92;;;3.90;91.40;;;;;;5038641;28;20037;-80
2022/01/06 05:14:32;;;;;;;5.45;1.92;;;3.90;91.40;;;;;;5042812;28;20111;-80
2022/01/06 05:16:59;;;;;;;6.82;2.00;;;3.90;91.40;;;;;;5044721;28;20553;-80
2022/01/06 05:19:24;;;;;;;4.95;1.52;;;3.90;91.40;;;;;;5044274;28;20024;-80
2022/01/06 05:21:51;;;;;;;5.35;2.30;;;3.90;91.40;;;;;;5038957;28;20087;-80
2022/01/06 05:24:18;;;;;;;3.80;1.60;;;3.90;91.40;;;;;;5038946;28;20120;-81
2022/01/06 05:26:43;;;;;;;4.68;2.25;;;3.90;91.40;;;;;;5024270;28;20087;-81
2022/01/06 05:29:10;;;;;;;8.38;2.10;;;3.90;91.40;;;;;;5021167;28;20036;-80
2022/01/06 05:31:35;;;;;;;4.40;1.75;;;3.90;91.40;;;;;;5023510;28;20047;-80
2022/01/06 05:34:01;;;;;;;6.38;1.90;;;3.90;91.30;;;;;;5040238;28;20033;-80
2022/01/06 05:36:26;;;;;;;7.28;1.85;;;3.90;91.30;;;;;;5039530;28;20436;-80
2022/01/06 05:38:52;;;;;;;5.25;2.05;;;3.90;91.30;;;;;;5047276;28;20041;-80
2022/01/06 05:41:18;;;;;;;5.13;1.88;;;3.90;91.30;;;;;;5043090;28;20036;-81
2022/01/06 05:43:43;;;;;;;5.75;2.17;;;3.90;91.30;;;;;;5043020;28;20033;-80
2022/01/06 05:46:09;;;;;;;5.63;1.92;;;3.90;91.30;;;;;;5041227;28;20044;-80
2022/01/06 05:48:34;;;;;;;2.83;1.70;;;3.80;91.30;;;;;;5034741;28;20075;-81
2022/01/06 05:51:00;;;;;;;8.50;1.80;;;3.80;91.30;;;;;;5038806;28;20057;-82
2022/01/06 05:53:25;;;;;;;4.95;1.90;;;3.80;91.30;;;;;;5039844;28;20566;-80
2022/01/06 05:55:51;;;;;;;6.57;2.00;;;3.80;91.30;;;;;;5037824;28;20044;-80
2022/01/06 05:58:16;;;;;;;4.18;1.90;;;3.80;91.30;;;;;;5039397;28;20049;-80
2022/01/06 06:00:42;;;;;;;6.18;1.90;;;3.80;91.30;;;;;;5039682;28;20037;-80
2022/01/06 06:03:08;;;;;;;8.75;2.42;;;3.80;91.70;;;;;;5038009;28;20035;-80
2022/01/06 06:05:34;;;;;;;6.65;2.25;;;3.80;91.40;;;;;;5024541;28;20526;-80
2022/01/06 06:07:59;;;;;;;5.88;1.80;;;3.80;91.40;;;;;;5023819;28;20090;-81
2022/01/06 06:10:25;;;;;;;8.10;2.20;;;3.80;91.40;;;;;;5021671;28;20578;-82
2022/01/06 06:12:52;;;;;;;7.85;2.00;;;3.80;91.40;;;;;;5040378;28;20055;-80
2022/01/06 06:15:19;;;;;;;6.95;2.55;;;3.80;91.40;;;;;;5028676;28;20044;-81
2022/01/06 06:17:45;;;;;;;10.10;2.10;;;3.70;91.40;;;;;;5043512;28;20044;-82
2022/01/06 06:20:11;;;;;;;4.75;2.10;;;3.70;91.40;;;;;;5037149;28;20037;-80
2022/01/06 06:22:37;;;;;;;8.23;2.20;;;3.70;91.40;;;;;;5030486;28;20499;-81
2022/01/06 06:25:02;;;;;;;8.88;2.47;;;3.70;91.40;;;;;;5036265;28;20047;-80
2022/01/06 06:27:28;;;;;;;9.75;2.33;;;3.70;91.40;;;;;;5038306;28;20457;-81
2022/01/06 06:29:53;;;;;;;6.45;2.20;;;3.70;91.40;;;;;;5026158;28;20598;-81
2022/01/06 06:32:19;;;;;;;3.97;2.00;;;3.70;91.50;;;;;;5040736;28;20039;-81
2022/01/06 06:34:44;;;;;;;8.45;2.13;;;3.70;91.50;;;;;;5021538;28;20055;-81
2022/01/06 06:37:10;;;;;;;4.18;2.00;;;3.70;91.50;;;;;;5040325;28;20423;-80
2022/01/06 06:39:35;;;;;;;8.00;2.22;;;3.70;91.50;;;;;;5035693;28;20131;-81
2022/01/06 06:42:01;;;;;;;6.85;2.10;;;3.70;91.50;;;;;;5054046;28;20037;-81
2022/01/06 06:44:26;;;;;;;7.65;2.38;;;3.70;91.50;;;;;;5025035;28;20038;-80
2022/01/06 06:46:52;;;;;;;5.82;2.55;;;3.70;91.50;;;;;;5052978;28;20605;-80
2022/01/06 06:49:18;;;;;;;10.02;2.42;;;3.70;91.50;;;;;;5022768;28;20068;-80
2022/01/06 06:51:43;;;;;;;7.05;2.35;;;3.70;91.50;;;;;;5039820;28;20041;-81
2022/01/06 06:54:09;;;;;;;8.75;2.40;;;3.70;91.50;;;;;;5035679;28;20037;-82
2022/01/06 06:56:34;;;;;;;7.68;2.20;;;3.70;91.50;;;;;;5042152;28;20032;-80
2022/01/06 06:59:00;;;;;;;5.38;2.80;;;3.70;91.50;;;;;;5036504;28;20047;-80
2022/01/06 07:01:25;;;;;;;5.22;2.30;;;3.70;91.50;;;;;;5025637;28;20075;-79
2022/01/06 07:03:51;;;;;;;9.82;2.55;;;3.70;91.50;;;;;;5050640;28;20472;-82
2022/01/06 07:06:16;;;;;;;4.90;2.08;;;3.70;91.90;;;;;;5036643;28;20070;-84
2022/01/06 07:08:42;;;;;;;11.65;3.00;;;3.70;91.60;;;;;;5036631;28;20095;-82
2022/01/06 07:11:07;;;;;;;6.05;1.83;;;3.70;91.60;;;;;;5048654;28;20044;-83
2022/01/06 07:13:33;;;;;;;5.45;1.70;;;3.70;91.60;;;;;;5022116;28;20037;-83
2022/01/06 07:15:58;;;;;;;11.45;2.58;;;3.70;91.60;;;;;;5017786;28;20041;-83
2022/01/06 07:18:24;;;;;;;8.10;2.60;;;3.70;91.60;;;;;;5054455;28;20116;-83
2022/01/06 07:20:49;;;;;;;8.85;2.88;;;3.70;91.90;;;;;;5037052;28;20073;-83
2022/01/06 07:23:15;;;;;;;5.45;2.10;;;3.70;91.60;;;;;;5040947;28;20033;-83
2022/01/06 07:25:40;;;;;;;5.63;1.88;;;3.70;91.70;;;;;;5048319;28;20033;-83
2022/01/06 07:28:06;;;;;;;3.10;1.85;;;3.70;91.70;;;;;;5040090;28;20046;-81
2022/01/06 07:30:33;;;;;;;5.80;2.65;;;3.70;91.70;;;;;;5042994;28;20040;-82
2022/01/06 07:32:59;;;;;;;7.07;2.30;;;3.70;91.70;;;;;;5040359;28;20488;-81
2022/01/06 07:35:25;;;;;;;10.48;2.38;;;3.70;91.70;;;;;;5034101;28;20046;-82
2022/01/06 07:37:51;;;;;;;5.18;2.00;;;3.70;91.80;;;;;;5053865;28;20043;-82
2022/01/06 07:40:16;;;;;;;8.82;2.80;;;3.70;91.80;;;;;;5031240;28;20374;-81
2022/01/06 07:42:42;;;;;;;7.60;3.13;;;3.60;91.80;;;;;;5022978;28;20106;-81
2022/01/06 07:45:08;;;;;;;7.43;3.22;;;3.70;91.80;;;;;;5038766;28;20147;-81
2022/01/06 07:47:36;;;;;;;10.82;2.55;;;3.70;91.90;;;;;;5015210;28;20030;-80
2022/01/06 07:50:02;;;;;;;9.00;2.78;;;3.70;91.90;;;;;;5025385;28;20034;-80
2022/01/06 07:52:28;;;;;;;7.72;2.85;;;3.60;91.80;;;;;;5038650;28;20093;-80
2022/01/06 07:54:53;;;;;;;6.00;2.55;;;3.60;91.80;;;;;;5049336;28;20618;-81
2022/01/06 07:57:19;;;;;;;7.05;2.33;;;3.60;91.80;;;;;;5043564;28;20029;-81
2022/01/06 07:59:44;;;;;;;7.50;3.38;;;3.60;91.90;;;;;;5031606;28;20052;-80
2022/01/06 08:02:10;;;;;;;10.60;3.05;;;3.50;91.80;;;;;;5050356;28;20032;-80
2022/01/06 08:04:36;;;;;;;7.18;2.22;;;3.50;91.90;;;;;;5043042;28;20025;-80
2022/01/06 08:07:01;;;;;;;8.93;2.50;;;3.50;91.90;;;;;;5034893;28;20037;-81
2022/01/06 08:09:27;;;;;;;5.47;2.45;;;3.50;91.90;;;;;;5031424;28;20107;-81
2022/01/06 08:11:52;;;;;;;11.02;3.63;;;3.50;91.90;;;;;;5044488;28;20037;-81
2022/01/06 08:14:18;;;;;;;9.40;3.72;;;3.50;91.90;;;;;;5014965;28;20486;-81
2022/01/06 08:16:44;;;;;;;15.32;9.23;;;3.50;91.90;;;;;;5035722;28;20477;-80
2022/01/06 08:19:09;;;;;;;22.65;11.20;;;3.40;91.90;;;;;;5020665;28;20028;-81
2022/01/06 08:21:34;;;;;;;18.48;8.60;;;3.40;91.90;;;;;;5042452;28;20065;-80
2022/01/06 08:24:00;;;;;;;15.70;6.50;;;3.40;92.00;;;;;;5040752;28;20033;-81
2022/01/06 08:26:25;;;;;;;15.13;7.20;;;3.50;92.00;;;;;;5041914;28;20503;-80
2022/01/06 08:28:51;;;;;;;11.65;3.80;;;3.50;92.00;;;;;;5042315;28;20041;-82
2022/01/06 08:31:17;;;;;;;8.88;3.75;;;3.50;92.00;;;;;;5018183;28;20119;-80
2022/01/06 08:33:43;;;;;;;13.07;4.57;;;3.50;92.00;;;;;;5037036;28;20114;-80
2022/01/06 08:36:08;;;;;;;9.55;4.45;;;3.50;92.00;;;;;;5041032;28;20056;-80
2022/01/06 08:38:34;;;;;;;9.02;3.70;;;3.60;92.10;;;;;;5029830;28;20098;-80
2022/01/06 08:40:59;;;;;;;10.27;3.47;;;3.70;92.10;;;;;;5041089;28;20495;-81
2022/01/06 08:43:27;;;;;;;9.48;3.83;;;3.70;92.10;;;;;;5028456;28;20048;-80
2022/01/06 08:45:57;;;;;;;10.25;3.88;;;3.70;92.10;;;;;;5045970;28;20033;-80
2022/01/06 08:48:25;;;;;;;9.00;3.35;;;3.80;92.10;;;;;;5013813;28;20135;-83
2022/01/06 08:50:51;;;;;;;15.00;4.40;;;3.80;92.10;;;;;;5039300;28;20039;-80
2022/01/06 08:53:17;;;;;;;15.85;4.40;;;3.90;92.10;;;;;;5041034;28;20839;-80
2022/01/06 08:55:46;;;;;;;7.50;2.80;;;3.90;92.00;;;;;;5047655;28;20060;-80
2022/01/06 08:58:15;;;;;;;5.63;2.95;;;3.90;92.00;;;;;;5024412;28;20041;-79
2022/01/06 09:00:41;;;;;;;12.82;3.65;;;4.00;92.00;;;;;;5021218;28;20036;-79
2022/01/06 09:03:07;;;;;;;10.18;4.35;;;4.00;92.00;;;;;;5032507;28;20670;-79
2022/01/06 09:05:33;;;;;;;12.50;4.10;;;4.10;92.00;;;;;;5055121;28;20041;-80
2022/01/06 09:07:59;;;;;;;9.65;3.70;;;4.20;92.10;;;;;;5052262;28;20037;-79
2022/01/06 09:10:29;;;;;;;7.45;3.60;;;4.30;92.10;;;;;;5024916;28;20076;-80
2022/01/06 09:12:55;;;;;;;16.77;3.33;;;4.40;92.00;;;;;;5039574;28;20075;-80
2022/01/06 09:15:20;;;;;;;7.13;3.20;;;4.40;92.00;;;;;;5042205;28;20029;-80
2022/01/06 09:17:46;;;;;;;11.00;3.00;;;4.50;92.00;;;;;;5036894;28;20034;-80
2022/01/06 09:20:12;;;;;;;10.20;3.33;;;4.60;91.90;;;;;;5039412;28;20394;-80
2022/01/06 09:22:37;;;;;;;9.07;3.13;;;4.70;92.00;;;;;;5041270;28;20029;-81
2022/01/06 09:25:03;;;;;;;10.80;2.88;;;4.80;92.30;;;;;;5043119;28;20628;-79
2022/01/06 09:27:30;;;;;;;8.80;2.88;;;4.90;91.90;;;;;;5048772;28;20586;-81
2022/01/06 09:29:56;;;;;;;12.65;4.35;;;5.00;91.90;;;;;;5039065;28;20554;-80
2022/01/06 09:32:21;;;;;;;17.83;4.15;;;5.10;91.90;;;;;;5033170;28;20032;-80
2022/01/06 09:34:47;;;;;;;8.45;3.25;;;5.20;91.80;;;;;;5051073;28;20037;-79
2022/01/06 09:37:13;;;;;;;6.85;2.75;;;5.20;91.80;;;;;;5027771;28;20031;-79
2022/01/06 09:39:39;;;;;;;10.98;3.30;;;5.40;91.80;;;;;;5027869;28;20523;-79
2022/01/06 09:42:04;;;;;;;4.68;2.65;;;5.50;91.80;;;;;;5012486;28;20043;-80
2022/01/06 09:44:30;;;;;;;6.20;3.45;;;5.60;91.80;;;;;;5038979;28;20033;-80
2022/01/06 09:46:56;;;;;;;10.63;3.08;;;5.70;91.70;;;;;;5019975;28;20092;-80
2022/01/06 09:49:22;;;;;;;6.90;2.55;;;5.70;91.60;;;;;;5044992;28;20037;-81
2022/01/06 09:51:48;;;;;;;9.52;2.95;;;5.80;91.50;;;;;;5021389;28;20474;-79
2022/01/06 09:54:13;;;;;;;6.75;2.67;;;5.90;91.50;;;;;;5036893;28;20085;-80
2022/01/06 09:56:39;;;;;;;11.30;2.88;;;6.00;91.50;;;;;;5047643;28;20727;-80
2022/01/06 09:59:04;;;;;;;7.05;2.95;;;6.10;91.50;;;;;;5005072;28;20465;-80
2022/01/06 10:01:30;;;;;;;9.38;3.47;;;6.30;91.50;;;;;;5031285;28;20041;-80
2022/01/06 10:03:55;;;;;;;9.20;3.10;;;6.30;91.30;;;;;;5022472;28;20094;-80
2022/01/06 10:06:23;;;;;;;11.88;3.22;;;6.40;91.30;;;;;;5037410;28;20511;-81
2022/01/06 10:08:51;;;;;;;9.40;3.13;;;6.40;91.30;;;;;;5038889;28;20071;-80
2022/01/06 10:11:19;;;;;;;7.25;2.63;;;6.50;91.30;;;;;;5032983;28;20040;-81
2022/01/06 10:13:52;;;;;;;8.25;3.42;;;6.60;91.40;;;;;;5019834;28;20043;-80
2022/01/06 10:16:19;;;;;;;6.32;2.70;;;6.70;91.40;;;;;;5042333;28;20028;-81
2022/01/06 10:19:10;;;;;;;7.43;2.78;;;6.80;91.20;;;;;;5019596;28;20033;-80
2022/01/06 10:21:47;;;;;;;8.77;2.78;;;7.00;90.90;;;;;;5044438;28;20119;-81
2022/01/06 10:24:13;;;;;;;8.60;3.17;;;7.00;91.00;;;;;;5036629;28;20040;-80
2022/01/06 10:27:06;;;;;;;8.23;3.30;;;7.20;91.10;;;;;;5023045;28;20123;-80
2022/01/06 10:29:36;;;;;;;4.20;2.03;;;7.40;91.00;;;;;;5019467;28;20492;-80
2022/01/06 10:32:09;;;;;;;7.28;2.20;;;7.50;90.90;;;;;;5022816;28;20029;-80
2022/01/06 10:34:36;;;;;;;6.93;2.20;;;7.60;90.80;;;;;;5038022;28;20114;-80
2022/01/06 10:37:03;;;;;;;6.03;2.03;;;7.80;90.70;;;;;;5039155;28;20037;-81
2022/01/06 10:39:40;;;;;;;7.53;2.35;;;7.80;90.50;;;;;;5035928;28;20036;-80
2022/01/06 10:42:06;;;;;;;4.88;2.00;;;7.90;90.20;;;;;;5007627;28;20047;-81
2022/01/06 10:44:31;;;;;;;5.97;2.05;;;7.90;90.20;;;;;;5038756;28;20028;-80
2022/01/06 10:46:57;;;;;;;6.10;1.80;;;8.00;90.00;;;;;;5013821;28;20467;-80
2022/01/06 10:49:22;;;;;;;7.18;1.92;;;8.00;89.80;;;;;;5020590;28;20537;-81
2022/01/06 10:51:49;;;;;;;8.98;2.05;;;8.10;89.40;;;;;;5033316;28;20040;-79
2022/01/06 10:54:23;;;;;;;5.38;1.65;;;8.10;88.80;;;;;;5033094;28;20041;-82
2022/01/06 10:57:18;;;;;;;8.35;2.10;;;8.20;88.60;;;;;;5031521;28;20036;-80
2022/01/06 10:59:44;;;;;;;7.88;2.28;;;8.30;87.90;;;;;;5026072;28;20540;-79
2022/01/06 11:02:10;;;;;;;15.98;7.50;;;8.40;88.50;;;;;;5037265;28;20484;-83
2022/01/06 11:04:36;;;;;;;17.70;8.52;;;8.40;88.20;;;;;;5023728;28;20085;-81
2022/01/06 11:07:01;;;;;;;9.40;4.78;;;8.40;87.90;;;;;;5021373;28;20045;-80
2022/01/06 11:09:29;;;;;;;7.95;3.70;;;8.40;87.40;;;;;;5037184;28;20046;-81
2022/01/06 11:14:24;;;;;;;10.73;4.20;;;8.30;87.50;;;;;;5007593;28;20037;-80
2022/01/06 11:16:49;;;;;;;13.50;4.57;;;8.20;87.10;;;;;;5019356;28;20035;-80
2022/01/06 11:19:15;;;;;;;9.45;3.15;;;8.10;86.80;;;;;;5042216;28;21474;-81
2022/01/06 11:21:45;;;;;;;8.13;2.92;;;8.10;86.90;;;;;;5030997;28;20708;-80
2022/01/06 11:24:15;;;;;;;5.55;2.75;;;8.10;87.40;;;;;;5025603;28;20036;-80
2022/01/06 11:26:42;;;;;;;7.97;2.80;;;8.10;86.80;;;;;;5020039;28;20696;-80
2022/01/06 11:29:08;;;;;;;8.68;2.95;;;8.10;86.80;;;;;;5022580;28;20041;-80
2022/01/06 11:31:40;;;;;;;11.98;2.95;;;8.20;86.80;;;;;;5039398;28;20114;-81
2022/01/06 11:34:13;;;;;;;8.32;2.95;;;8.30;86.50;;;;;;5035696;28;20510;-80
2022/01/06 11:36:38;;;;;;;6.20;3.60;;;8.40;86.40;;;;;;5037799;28;20037;-80
2022/01/06 11:39:06;;;;;;;7.10;3.08;;;8.50;86.40;;;;;;5019161;28;20680;-80
2022/01/06 11:41:38;;;;;;;10.27;4.15;;;8.60;86.40;;;;;;5042699;28;20078;-80
2022/01/06 11:44:18;;;;;;;5.95;2.58;;;8.70;85.90;;;;;;5021710;28;20052;-80
2022/01/06 11:46:45;;;;;;;5.78;3.33;;;8.80;85.00;;;;;;5021354;28;20033;-80
2022/01/06 11:49:10;;;;;;;8.80;3.38;;;8.90;85.80;;;;;;4982161;28;20526;-80
2022/01/06 11:51:37;;;;;;;6.97;2.75;;;9.00;85.80;;;;;;5023839;28;20055;-79
2022/01/06 11:54:16;;;;;;;8.77;2.80;;;9.10;85.60;;;;;;5021746;28;20114;-80
2022/01/06 11:56:46;;;;;;;6.18;2.55;;;9.20;85.20;;;;;;5025665;28;20814;-80
2022/01/06 11:59:12;;;;;;;3.60;2.03;;;9.30;85.20;;;;;;4992367;28;20495;-81
2022/01/06 12:01:47;;;;;;;4.35;2.00;;;9.30;84.90;;;;;;5038502;28;20036;-80
2022/01/06 12:04:17;;;;;;;3.20;2.08;;;9.30;84.20;;;;;;5023730;28;20717;-80
2022/01/06 12:06:43;;;;;;;6.10;2.65;;;9.40;84.70;;;;;;5027604;28;20076;-72
2022/01/06 12:09:19;;;;;;;3.55;1.70;;;9.40;84.20;;;;;;5043438;28;20507;-80
2022/01/06 12:11:45;;;;;;;3.72;1.20;;;9.30;83.60;;;;;;5018393;28;20044;-80
2022/01/06 12:14:11;;;;;;;4.32;1.90;;;9.20;83.80;;;;;;5052785;28;20037;-80
2022/01/06 12:16:37;;;;;;;6.07;1.95;;;9.20;84.00;;;;;;5021558;28;20068;-79
2022/01/06 12:19:19;;;;;;;6.55;2.97;;;9.30;84.20;;;;;;5006235;28;20066;-80
2022/01/06 12:21:45;;;;;;;14.95;6.90;;;9.40;83.70;;;;;;5020497;28;20037;-81
2022/01/06 12:24:11;;;;;;;24.92;9.30;;;9.40;84.20;;;;;;5024790;28;20039;-80
2022/01/06 12:26:37;;;;;;;13.73;6.25;;;9.60;83.80;;;;;;5007260;28;20133;-81
2022/01/06 12:29:04;;;;;;;19.42;7.38;;;9.70;83.30;;;;;;5027242;28;20070;-81
2022/01/06 12:31:30;;;;;;;18.20;6.75;;;9.60;82.40;;;;;;5027409;28;20094;-80
2022/01/06 12:33:59;;;;;;;40.20;16.88;;;9.60;82.20;;;;;;5033838;28;20650;-82
2022/01/06 12:36:25;;;;;;;12.73;6.03;;;9.60;82.50;;;;;;5019515;28;20041;-80
2022/01/06 12:38:50;;;;;;;4.88;3.17;;;9.50;82.40;;;;;;5033552;28;20033;-81
2022/01/06 12:41:27;;;;;;;6.53;3.25;;;9.50;82.30;;;;;;5053418;28;20040;-80
2022/01/06 12:43:55;;;;;;;7.82;3.67;;;9.40;82.00;;;;;;5035507;28;20044;-80
2022/01/06 12:46:21;;;;;;;6.68;3.13;;;9.40;82.40;;;;;;5023252;28;20094;-80
2022/01/06 12:48:51;;;;;;;5.50;2.60;;;9.40;82.40;;;;;;5008953;28;20045;-80
2022/01/06 12:51:27;;;;;;;7.07;2.42;;;9.40;82.20;;;;;;4990657;28;20064;-80
2022/01/06 12:54:04;;;;;;;4.10;2.13;;;9.40;81.20;;;;;;5008163;28;20043;-80
2022/01/06 12:56:32;;;;;;;3.13;1.92;;;9.40;81.50;;;;;;4994313;28;20037;-81
2022/01/06 12:58:59;;;;;;;5.20;1.80;;;9.40;81.50;;;;;;5054351;28;20411;-81